KCAE/CAE METAR and TAF weather

Enter ICAO airport designator
Station Type Date Time Source
KCAE METAR 2021/07/26 15:56 UTC NOAA

KCAE 261556Z 20004KT 9SM FEW040 SCT150 31/22 A2999 RMK AO2 SLP151 T03110222


Station Type Date Time Source
KCAE Decoded METAR 2021/07/26 15:56 UTC NOAA

COLUMBIA METROPOLITAN AIRPORT , SC, United States (KCAE) 33-57N 081-07W 73M
Jul 26, 2021 - 11:56 AM EDT / 2021.07.26 1556 UTC
Wind: from the SSW (200 degrees) at 5 MPH (4 KT):0
Visibility: 9 mile(s):0
Sky conditions: partly cloudy
Temperature: 88.0 F (31.1 C)
Heat index: 94.6 F (34.8 C):1
Dew Point: 72.0 F (22.2 C)
Relative Humidity: 59%
Pressure (altimeter): 29.99 in. Hg (1015 hPa)
ob: KCAE 261556Z 20004KT 9SM FEW040 SCT150 31/22 A2999 RMK AO2 SLP151 T03110222
cycle: 16

Station Type Date Time Source
KCAE TAF 2021/07/26 15:04 UTC NOAA

TAF
AMD KCAE 261501Z 2615/2712 VRB05KT P6SM SCT040
FM270700 00000KT 6SM BR BKN250

Example: see airport list